Weather observations for the past three days for
Elbert Mountain - Monument Pass
Imperial (Metric)
Date Time (mdt) Wind (mph) Vis. (mi.) Weather Sky Cond. Temperature (ºF) Relative Humidity Wind Chill (°F) Heat Index (°F) Pressure Precipitation (in)
Air Dwpt 6 hour altimeter (in) sea level (mb) 1 hr 3 hr 6 hr
Max. Min.
04 15:35 NE 6 10.00 Mostly Cloudy BKN090 BKN120 64.4 26.6 24% 29.85 0.0
04 15:15 N 6 G 20 10.00 Partly Cloudy SCT110 62.6 24.8 24% 29.86 0.0
04 14:55 N 12 G 17 10.00 Mostly Cloudy SCT050 SCT070 BKN090 62.6 26.6 25% 29.86 0.0
04 14:35 N 10 G 17 10.00 Overcast SCT070 OVC090 60.8 23 23% 29.87 0.0
04 14:15 NW 8 10.00 Overcast SCT080 OVC100 62.6 24.8 24% 29.87 0.0
04 13:55 N 12 G 16 10.00 Overcast BKN100 OVC120 62.6 24.8 24% 29.87 0.0
04 13:35 E 5 10.00 Mostly Cloudy SCT100 BKN120 64.4 24.8 22% 29.87 0.0
04 13:15 S 8 G 23 10.00 Partly Cloudy SCT090 SCT120 64.4 24.8 22% 29.87 0.0
04 12:55 SE 17 G 22 10.00 Partly Cloudy SCT100 SCT120 64.4 24.8 22% 29.87 0.0
04 12:35 S 10 G 16 10.00 Overcast BKN090 OVC110 60.8 23 23% 29.89 0.0
04 12:15 SW 6 10.00 Mostly Cloudy SCT090 BKN110 62.6 26.6 25% 29.89 0.0
04 11:55 S 10 10.00 Partly Cloudy SCT090 64.4 24.8 22% 29.89 0.0
04 11:35 W 8 G 18 10.00 Partly Cloudy SCT090 62.6 26.6 25% 29.91 0.0
04 11:21 W 9 G 20 10.00 Partly Cloudy SCT090 64.4 28.4 26% 29.91 0.0
04 10:35 W 13 G 22 10.00 Fair CLR 60.8 23 23% 29.92 0.0
04 10:15 W 13 G 17 10.00 Fair CLR 62.6 24.8 24% 29.93 0.0
04 09:55 W 14 G 20 10.00 Fair CLR 62.6 23 22% 29.93 0.0
04 09:35 W 14 G 20 10.00 Fair CLR 60.8 26.6 27% 29.93 0.0
04 09:15 W 17 G 22 10.00 Fair CLR 60.8 26.6 27% 29.93 0.0
04 08:55 W 13 G 18 10.00 Fair CLR 59 26.6 29% 29.93 0.0
04 08:35 W 13 10.00 Fair CLR 59 28.4 31% 29.93 0.0
04 08:15 SW 13 10.00 Fair CLR 55.4 28.4 36% 29.93 0.0
04 07:55 SW 9 10.00 Fair CLR 53.6 28.4 38% 29.93 0.0
04 07:35 SW 9 10.00 Fair CLR 51.8 28.4 41% 29.93 0.0
04 07:15 SW 9 10.00 Fair CLR 50 26.6 40% 47 29.93 0.0
04 06:55 SW 10 10.00 Fair CLR 48.2 26.6 43% 44 29.93 0.0
04 06:35 SW 10 10.00 Fair CLR 44.6 26.6 49% 40 29.93 0.0
04 06:15 SW 9 10.00 Fair CLR 44.6 24.8 46% 40 29.93 0.0
04 05:55 SW 7 10.00 Fair CLR 42.8 24.8 49% 39 29.92 0.0
04 05:35 SW 9 10.00 Fair CLR 44.6 24.8 46% 40 29.93 0.0
04 05:15 SW 6 10.00 Fair CLR 42.8 24.8 49% 40 29.93 0.0
04 04:55 SW 6 10.00 Fair CLR 44.6 24.8 46% 42 29.93 0.0
04 04:35 SW 3 10.00 Fair CLR 44.6 23 43% 29.93 0.0
04 04:15 W 6 10.00 Fair CLR 42.8 24.8 49% 40 29.93 0.0
04 03:55 W 7 10.00 Fair CLR 42.8 26.6 53% 39 29.93 0.0
04 03:35 W 8 10.00 Fair CLR 44.6 26.6 49% 41 29.94 0.0
04 03:15 SW 10 10.00 Fair CLR 46.4 24.8 43% 42 29.94 0.0
04 02:55 SW 10 10.00 Fair CLR 44.6 26.6 49% 40 29.95 0.0
04 02:35 SW 10 10.00 Fair CLR 46.4 26.6 46% 42 29.95 0.0
04 02:15 SW 10 10.00 Fair CLR 44.6 26.6 49% 40 29.95 0.0
04 01:55 S 8 10.00 Fair CLR 41 28.4 61% 36 29.96 0.0
04 01:35 S 8 10.00 Fair CLR 44.6 28.4 53% 41 29.96 0.0
04 01:15 S 8 10.00 Fair CLR 42.8 30.2 61% 39 29.97 0.0
04 00:55 S 6 10.00 Fair CLR 44.6 28.4 53% 42 29.98 0.0
04 00:35 S 7 10.00 Fair CLR 42.8 32 66% 39 29.98 0.0
04 00:15 S 8 10.00 Fair CLR 44.6 30.2 57% 41 29.98 0.0
03 23:55 S 6 10.00 Fair CLR 44.6 32 61% 42 29.99 0.0
03 23:35 S 6 10.00 Fair CLR 44.6 32 61% 42 29.99 0.0
03 23:15 S 5 10.00 Fair CLR 44.6 30.2 57% 43 30 0.0
03 22:55 SW 5 10.00 Fair CLR 46.4 30.2 53% 45 30 0.0
03 22:35 Calm 10.00 Fair CLR 46.4 32 57% 30.01 0.0
03 22:15 S 3 10.00 Fair CLR 44.6 32 61% 30.01 0.0
03 21:55 Calm 10.00 Fair CLR 48.2 32 54% 30.01 0.0
03 21:35 Calm 10.00 Fair CLR 51.8 28.4 41% 30.01 0.0
03 21:15 NW 3 10.00 Partly Cloudy SCT120 51.8 28.4 41% 30.01 0.0
03 20:55 Calm 10.00 Partly Cloudy SCT100 SCT120 53.6 28.4 38% 30.01 0.0
03 20:35 N 6 10.00 Partly Cloudy SCT100 SCT120 53.6 28.4 38% 30.01 0.0
03 20:15 N 5 10.00 Mostly Cloudy BKN100 53.6 28.4 38% 30.01 0.0
03 19:55 N 6 10.00 Mostly Cloudy BKN100 53.6 28.4 38% 30 0.0
03 19:35 N 9 10.00 Overcast OVC110 57.2 26.6 31% 30 0.0
03 19:15 Calm 10.00 Mostly Cloudy BKN110 59 30.2 34% 29.99 0.0
03 18:55 Calm 10.00 Partly Cloudy SCT120 59 26.6 29% 29.98 0.0
03 18:35 SE 3 10.00 Fair CLR 60.8 26.6 27% 29.98 0.0
03 18:15 Calm 10.00 Partly Cloudy SCT110 60.8 21.2 22% 29.99 0.0
03 17:55 S 6 10.00 Overcast OVC110 60.8 21.2 22% 29.98 0.0
03 17:35 S 9 10.00 Overcast OVC110 60.8 21.2 22% 29.99 0.0
03 17:15 S 8 10.00 Overcast OVC110 60.8 21.2 22% 29.99 0.0
03 16:55 W 8 10.00 Overcast OVC110 62.6 17.6 17% 29.99 0.0
03 16:35 Calm 10.00 Mostly Cloudy BKN110 62.6 17.6 17% 30 0.0
03 16:15 S 5 10.00 Mostly Cloudy BKN110 62.6 17.6 17% 30 0.0
03 15:55 SE 6 10.00 Mostly Cloudy BKN110 62.6 17.6 17% 30.01 0.0
03 15:35 Calm 10.00 Partly Cloudy SCT120 64.4 17.6 16% 30.02 0.0
03 15:15 N 8 10.00 Fair CLR 62.6 15.8 16% 30.03 0.0
03 14:55 N 6 10.00 Fair CLR 64.4 17.6 16% 30.04 0.0
03 14:35 NE 5 10.00 Fair CLR 62.6 19.4 19% 30.05 0.0
03 13:55 NW 5 10.00 Partly Cloudy SCT110 60.8 17.6 19% 30.07 0.0
03 13:35 NW 7 10.00 Partly Cloudy SCT110 64.4 17.6 16% 30.08 0.0
03 13:15 NW 5 10.00 Partly Cloudy SCT110 62.6 15.8 16% 30.08 0.0
03 12:55 W 5 G 20 10.00 Fair CLR 62.6 17.6 17% 30.09 0.0
03 12:35 NW 15 G 20 10.00 Fair CLR 62.6 19.4 19% 30.1 0.0
03 12:15 W 7 G 18 10.00 Fair CLR 62.6 19.4 19% 30.11 0.0
03 11:55 NW 8 G 23 10.00 Fair CLR 62.6 19.4 19% 30.12 0.0
03 11:35 W 15 G 21 10.00 Fair CLR 62.6 23 22% 30.13 0.0
03 11:15 W 15 G 22 10.00 Fair CLR 60.8 21.2 22% 30.14 0.0
03 10:55 W 18 G 26 10.00 Fair CLR 60.8 21.2 22% 30.14 0.0
03 10:35 W 18 G 23 10.00 Fair CLR 60.8 21.2 22% 30.14 0.0
03 10:15 W 15 G 24 10.00 Fair CLR 59 23 25% 30.15 0.0
03 09:55 W 15 G 25 10.00 Fair CLR 59 23 25% 30.15 0.0
03 09:35 W 14 10.00 Fair CLR 57.2 23 27% 30.15 0.0
03 09:15 W 14 10.00 Fair CLR 55.4 24.8 31% 30.15 0.0
03 08:55 W 10 10.00 Fair CLR 55.4 26.6 33% 30.16 0.0
03 08:35 SW 8 10.00 Fair CLR 51.8 28.4 41% 30.16 0.0
03 08:15 SW 9 10.00 Fair CLR 51.8 26.6 38% 30.16 0.0
03 07:55 SW 5 10.00 Fair CLR 51.8 28.4 41% 30.16 0.0
03 07:35 SW 7 10.00 Fair CLR 50 28.4 43% 48 30.16 0.0
03 07:15 SW 6 10.00 Fair CLR 50 26.6 40% 48 30.16 0.0
03 06:55 SW 7 10.00 Fair CLR 46.4 24.8 43% 43 30.14 0.0
03 06:35 SW 8 10.00 Fair CLR 44.6 23 43% 41 30.14 0.0
03 06:15 SW 8 10.00 Fair CLR 42.8 23 46% 39 30.13 0.0
03 05:55 SW 9 10.00 Fair CLR 41 23 49% 36 30.12 0.0
03 05:35 SW 8 10.00 Fair CLR 41 23 49% 36 30.12 0.0
03 05:15 SW 9 10.00 Fair CLR 44.6 23 43% 40 30.12 0.0
03 04:55 SW 7 10.00 Fair CLR 42.8 23 46% 39 30.12 0.0
03 04:35 SW 7 10.00 Fair CLR 41 23 49% 37 30.13 0.0
03 04:15 SW 9 10.00 Fair CLR 42.8 23 46% 38 30.13 0.0
03 03:55 SW 10 10.00 Fair CLR 42.8 23 46% 38 30.13 0.0
03 03:35 SW 10 10.00 Fair CLR 42.8 21.2 42% 38 30.13 0.0
03 03:15 SW 9 10.00 Fair CLR 44.6 21.2 39% 40 30.13 0.0
03 02:55 S 8 10.00 Fair CLR 41 23 49% 36 30.13 0.0
03 02:35 S 7 10.00 Fair CLR 41 23 49% 37 30.13 0.0
03 02:15 SW 12 10.00 Fair CLR 42.8 21.2 42% 37 30.14 0.0
03 01:55 S 12 10.00 Fair CLR 42.8 21.2 42% 37 30.14 0.0
03 01:35 SW 10 10.00 Fair CLR 44.6 21.2 39% 40 30.15 0.0
03 01:15 S 10 10.00 Fair CLR 44.6 21.2 39% 40 30.15 0.0
03 00:55 S 9 10.00 Fair CLR 42.8 23 46% 38 30.16 0.0
03 00:35 S 10 10.00 Fair CLR 42.8 23 46% 38 30.16 0.0
03 00:15 S 12 10.00 Fair CLR 42.8 21.2 42% 37 30.16 0.0
02 23:55 S 12 10.00 Fair CLR 44.6 21.2 39% 39 30.16 0.0
02 23:35 S 12 10.00 Fair CLR 44.6 19.4 37% 39 30.16 0.0
02 23:15 S 12 10.00 Fair CLR 46.4 19.4 34% 42 30.16 0.0
02 22:55 S 10 10.00 Fair CLR 44.6 19.4 37% 40 30.17 0.0
02 22:35 S 10 10.00 Fair CLR 44.6 19.4 37% 40 30.17 0.0
02 22:15 S 13 10.00 Fair CLR 44.6 19.4 37% 39 30.17 0.0
02 21:55 S 12 10.00 Fair CLR 44.6 21.2 39% 39 30.17 0.0
02 21:35 S 12 10.00 Fair CLR 46.4 19.4 34% 42 30.16 0.0
02 21:15 S 12 10.00 Fair CLR 46.4 21.2 37% 42 30.16 0.0
02 20:55 S 9 10.00 Fair CLR 46.4 23 40% 42 30.16 0.0
02 20:35 S 9 10.00 Fair CLR 46.4 23 40% 42 30.16 0.0
02 20:15 S 10 10.00 Fair CLR 50 23 35% 46 30.15 0.0
02 19:55 SE 12 10.00 Fair CLR 51.8 23 32% 30.15 0.0
02 19:35 SE 12 10.00 Fair CLR 53.6 23 30% 30.14 0.0
02 19:15 S 12 10.00 Fair CLR 55.4 23 28% 30.14 0.0
02 18:55 S 13 G 17 10.00 Fair CLR 59 23 25% 30.14 0.0
02 18:35 S 12 10.00 Fair CLR 59 23 25% 30.14 0.0
02 18:15 S 8 10.00 Fair CLR 59 23 25% 30.15 0.0
02 17:55 S 10 G 16 10.00 Fair CLR 60.8 23 23% 30.15 0.0
02 17:35 S 8 10.00 Fair CLR 60.8 23 23% 30.16 0.0
02 17:15 S 3 10.00 Fair CLR 60.8 21.2 22% 30.16 0.0
02 16:55 Calm 10.00 Fair CLR 60.8 17.6 19% 30.16 0.0
02 16:35 Calm 10.00 Fair CLR 60.8 19.4 20% 30.16 0.0
02 16:15 W 5 10.00 Fair CLR 60.8 19.4 20% 30.17 0.0
02 15:55 SE 8 10.00 Fair CLR 60.8 19.4 20% 30.17 0.0
02 15:35 SE 9 10.00 Fair CLR 60.8 21.2 22% 30.19 0.0
02 15:15 SE 6 G 16 10.00 Fair CLR 60.8 19.4 20% 30.19 0.0
02 14:55 Calm 10.00 Fair CLR 60.8 19.4 20% 30.2 0.0
02 14:35 SW 7 10.00 Fair CLR 59 23 25% 30.21 0.0
02 14:15 Calm 10.00 Fair CLR 59 21.2 23% 30.21 0.0
02 13:55 NE 5 10.00 Fair CLR 57.2 21.2 25% 30.22 0.0
02 13:15 Calm 10.00 Fair CLR 57.2 19.4 23% 30.23 0.0
02 12:55 N 3 10.00 Fair CLR 55.4 21.2 26% 30.24 0.0
02 12:35 N 3 10.00 Fair CLR 55.4 21.2 26% 30.25 0.0
02 12:15 N 8 10.00 Fair CLR 53.6 21.2 28% 30.25 0.0
02 11:55 W 6 10.00 Fair CLR 55.4 21.2 26% 30.25 0.0
02 11:35 NW 8 10.00 Fair CLR 53.6 19.4 26% 30.25 0.0
02 11:15 Calm 10.00 Fair CLR 51.8 19.4 28% 30.26 0.0
02 10:55 SW 6 10.00 Fair CLR 53.6 17.6 24% 30.26 0.0
02 10:35 W 7 10.00 Fair CLR 51.8 17.6 26% 30.26 0.0
02 10:15 W 7 10.00 Fair CLR 51.8 19.4 28% 30.26 0.0
02 09:55 W 5 10.00 Fair CLR 51.8 21.2 30% 30.26 0.0
02 09:35 NW 6 10.00 Fair CLR 50 19.4 30% 48 30.26 0.0
02 09:15 NW 5 10.00 Fair CLR 50 21.2 32% 49 30.26 0.0
02 08:55 W 6 10.00 Fair CLR 50 23 35% 48 30.27 0.0
02 08:35 W 5 10.00 Fair CLR 50 21.2 32% 49 30.27 0.0
02 08:15 SW 5 10.00 Fair CLR 46.4 26.6 46% 45 30.26 0.0
02 07:55 SW 6 10.00 Fair CLR 42.8 26.6 53% 40 30.27 0.0
02 07:35 SW 6 10.00 Fair CLR 41 24.8 53% 38 30.26 0.0
02 07:15 SW 7 10.00 Fair CLR 37.4 23 56% 33 30.26 0.0
02 06:55 SW 9 10.00 Fair CLR 35.6 21.2 56% 29 30.25 0.0
02 06:35 SW 8 10.00 Fair CLR 33.8 21.2 60% 28 30.25 0.0
02 06:15 S 8 10.00 Fair CLR 32 21.2 64% 25 30.24 0.0
02 05:55 SW 7 10.00 Fair CLR 32 19.4 60% 26 30.24 0.0
02 05:35 SW 9 10.00 Fair CLR 33.8 19.4 56% 27 30.24 0.0
02 05:15 SW 8 10.00 Fair CLR 33.8 19.4 56% 28 30.24 0.0
02 04:55 SW 7 10.00 Fair CLR 32 21.2 64% 26 30.24 0.0
02 04:35 SW 7 10.00 Fair CLR 32 21.2 64% 26 30.24 0.0
02 04:15 SW 6 10.00 Fair CLR 32 19.4 60% 27 30.24 0.0
02 03:55 SW 8 10.00 Fair CLR 33.8 19.4 56% 28 30.24 0.0
02 03:35 SW 8 10.00 Fair CLR 32 21.2 64% 25 30.23 0.0
02 03:15 SW 9 10.00 Fair CLR 32 21.2 64% 25 30.23 0.0
02 02:55 SW 9 10.00 Fair CLR 32 21.2 64% 25 30.23 0.0
02 02:35 SW 8 10.00 Fair CLR 32 23 69% 25 30.23 0.0
02 02:15 SW 7 10.00 Fair CLR 32 21.2 64% 26 30.23 0.0
02 01:55 SW 7 10.00 Fair CLR 32 21.2 64% 26 30.24 0.0
02 01:35 SW 6 10.00 Fair CLR 32 21.2 64% 27 30.24 0.0
02 01:15 SW 7 10.00 Fair CLR 33.8 21.2 60% 28 30.24 0.0
02 00:55 SW 7 10.00 Partly Cloudy SCT095 32 23 69% 26 30.25 0.0
02 00:35 SW 5 10.00 Partly Cloudy SCT095 32 23 69% 28 30.24 0.0
02 00:15 Calm 10.00 Partly Cloudy SCT095 33.8 23 65% 30.24 0.0
01 23:55 Calm 10.00 Partly Cloudy SCT095 33.8 24.8 70% 30.24 0.0
01 23:35 Calm 10.00 Overcast OVC095 32 28.4 87% 30.24 0.0
01 23:15 Calm 10.00 Mostly Cloudy BKN095 32 24.8 75% 30.24 0.0
01 22:55 Calm 10.00 Fair CLR 33.8 23 65% 30.24 0.0
01 22:35 Calm 10.00 Fair CLR 32 23 69% 30.24 0.0
01 22:15 Calm 10.00 Fair CLR 33.8 23 65% 30.23 0.0
01 21:55 S 3 10.00 Fair CLR 33.8 23 65% 30.22 0.0
01 21:35 Calm 10.00 Fair CLR 37.4 21.2 52% 30.22 0.0
01 21:15 Calm 10.00 Fair CLR 35.6 26.6 70% 30.21 0.0
01 20:55 Calm 10.00 Fair CLR 41 19.4 42% 30.2 0.0
01 20:35 Calm 10.00 Fair CLR 41 19.4 42% 30.19 0.0
01 20:15 Calm 10.00 Fair CLR 42.8 17.6 36% 30.19 0.0
01 19:55 Calm 10.00 Fair CLR 42.8 17.6 36% 30.19 0.0
01 19:35 N 3 10.00 Fair CLR 44.6 17.6 34% 30.18 0.0
01 19:15 N 6 10.00 Fair CLR 46.4 17.6 32% 44 30.17 0.0
01 18:55 N 8 10.00 Fair CLR 48.2 14 25% 45 30.17 0.0
01 18:35 N 7 10.00 Fair CLR 50 15.8 26% 48 30.17 0.0
01 18:15 N 10 10.00 Fair CLR 50 14 24% 46 30.17 0.0
01 17:55 N 7 10.00 Fair CLR 48.2 17.6 29% 46 30.17 0.0
01 17:35 N 8 10.00 Fair CLR 46.4 21.2 37% 43 30.17 0.0
01 17:15 N 7 10.00 Fair CLR 46.4 21.2 37% 43 30.17 0.0
01 16:55 N 5 10.00 Partly Cloudy SCT075 50 23 35% 49 30.17 0.0
01 16:35 Calm 10.00 Mostly Cloudy BKN085 48.2 23 37% 30.16 0.0
01 16:15 N 7 10.00 Mostly Cloudy SCT065 BKN085 46.4 23 40% 43 30.16 0.0
01 15:55 Calm 10.00 Mostly Cloudy SCT075 BKN080 48.2 23 37% 30.17 0.0
Date Time (mdt) Wind (mph) Vis. (mi.) Weather Sky Cond. Air Dwpt Max. Min. Relative Humidity Wind Chill (°F) Heat Index (°F) altimeter (in) sea level (mb) 1 hr 3 hr 6 hr
6 hour
Temperature (ºF) Pressure Precipitation (in)